Time;durP1;ratioP1;P1;durP2;ratioP2;P2;SDS_P1;SDS_P2;PMS_P1;PMS_P2;Temp;Humidity;BMP_temperature;BMP_pressure;BME280_temperature;BME280_humidity;BME280_pressure;Samples;Min_cycle;Max_cycle;Signal;HPM_P1;HPM_P2
2021/09/17 00:02:23;;;;;;;15.37;13.57;;;10.60;99.90;;;9.24;100.00;98034.63;5008660;28;20471;-75
2021/09/17 00:04:51;;;;;;;16.27;13.07;;;10.60;99.90;;;9.28;100.00;98034.00;5012466;28;20483;-77
2021/09/17 00:07:18;;;;;;;16.93;14.30;;;10.60;99.90;;;9.03;100.00;97999.59;5013841;28;20503;-76
2021/09/17 00:09:45;;;;;;;18.87;13.40;;;10.50;99.90;;;9.17;100.00;98021.16;5009815;28;20447;-75
2021/09/17 00:12:12;;;;;;;14.30;12.33;;;10.50;99.90;;;9.17;100.00;98022.00;5007266;28;21309;-75
2021/09/17 00:14:40;;;;;;;17.73;13.67;;;10.50;99.90;;;9.16;100.00;98017.63;5011932;28;20483;-75
2021/09/17 00:17:08;;;;;;;17.60;13.10;;;10.50;99.90;;;9.18;100.00;98022.84;5004633;28;21078;-75
2021/09/17 00:19:35;;;;;;;16.50;12.73;;;10.50;99.90;;;9.10;100.00;98014.94;5008273;28;20505;-75
2021/09/17 00:22:02;;;;;;;15.80;13.57;;;10.50;99.90;;;9.07;100.00;98019.72;5025146;28;21026;-74
2021/09/17 00:24:29;;;;;;;16.70;12.67;;;10.50;99.90;;;9.10;100.00;98021.16;5021254;28;20874;-75
2021/09/17 00:26:56;;;;;;;15.87;12.93;;;10.40;99.90;;;9.04;100.00;98024.66;5024673;28;20456;-75
2021/09/17 00:29:23;;;;;;;17.73;12.40;;;10.40;99.90;;;9.04;100.00;98022.81;5017764;28;20513;-75
2021/09/17 00:31:51;;;;;;;17.53;13.30;;;10.40;99.90;;;9.02;100.00;98022.19;5007191;28;20939;-76
2021/09/17 00:34:18;;;;;;;18.40;13.30;;;10.40;99.90;;;9.00;100.00;98020.72;5010439;28;20513;-76
2021/09/17 00:36:45;;;;;;;14.83;12.03;;;10.30;99.90;;;9.06;100.00;98020.75;5014788;28;20551;-76
2021/09/17 00:39:13;;;;;;;19.33;13.13;;;10.30;99.90;;;9.09;100.00;98022.19;5024683;28;20454;-75
2021/09/17 00:41:41;;;;;;;17.60;14.27;;;10.40;99.90;;;9.11;100.00;98022.81;5011051;28;20903;-79
2021/09/17 00:44:08;;;;;;;15.60;12.63;;;10.40;99.90;;;9.09;100.00;98024.06;5020265;28;21032;-76
2021/09/17 00:46:35;;;;;;;17.53;13.70;;;10.40;99.90;;;9.09;100.00;98024.88;5007924;28;20550;-75
2021/09/17 00:49:04;;;;;;;14.73;12.33;;;10.40;99.90;;;9.16;100.00;98019.50;5006881;28;20455;-76
2021/09/17 00:51:31;;;;;;;15.20;12.17;;;10.40;99.90;;;9.14;100.00;98017.00;5010309;28;20455;-76
2021/09/17 00:53:58;;;;;;;15.47;11.80;;;10.50;99.90;;;9.13;100.00;98014.50;5010507;28;20819;-76
2021/09/17 00:56:25;;;;;;;14.23;11.90;;;10.40;99.90;;;9.11;100.00;98021.97;5009202;28;20479;-76
2021/09/17 00:58:52;;;;;;;13.40;12.07;;;10.40;99.90;;;8.99;100.00;97992.94;5014213;28;20471;-76
2021/09/17 01:01:19;;;;;;;13.70;11.17;;;10.40;99.90;;;9.01;100.00;98012.44;5010039;28;20823;-77
2021/09/17 01:03:46;;;;;;;12.80;11.20;;;10.40;99.90;;;8.99;100.00;98014.50;5018228;28;20586;-77
2021/09/17 01:06:15;;;;;;;15.60;11.07;;;10.30;99.90;;;9.00;100.00;98008.06;5023438;28;20869;-77
2021/09/17 01:08:42;;;;;;;15.27;13.00;;;10.30;99.90;;;9.00;100.00;98008.06;5019554;28;20530;-75
2021/09/17 01:11:09;;;;;;;16.83;12.17;;;10.30;99.90;;;8.95;100.00;98007.03;5012829;28;20460;-77
2021/09/17 01:13:37;;;;;;;13.63;12.20;;;10.30;99.90;;;8.92;100.00;98003.72;5020092;28;20520;-76
2021/09/17 01:16:04;;;;;;;14.73;10.60;;;10.30;99.90;;;8.96;100.00;98012.22;5021390;28;20570;-76
2021/09/17 01:18:32;;;;;;;13.83;11.70;;;10.20;99.90;;;9.03;100.00;98012.22;5017574;28;20475;-75
2021/09/17 01:21:00;;;;;;;13.80;11.30;;;10.30;99.90;;;9.02;100.00;98007.88;5011704;28;20478;-75
2021/09/17 01:23:28;;;;;;;15.37;13.00;;;10.30;99.90;;;9.04;100.00;98009.34;5002547;28;20796;-76
2021/09/17 01:25:56;;;;;;;15.30;12.47;;;10.40;99.90;;;9.13;100.00;98011.81;5026611;28;20458;-77
2021/09/17 01:28:23;;;;;;;12.50;11.17;;;10.40;99.90;;;9.15;100.00;98007.91;5013548;28;20906;-75
2021/09/17 01:30:51;;;;;;;13.33;11.90;;;10.40;99.90;;;9.26;100.00;98003.75;5010643;28;20554;-75
2021/09/17 01:33:20;;;;;;;12.13;10.83;;;10.50;99.90;;;9.32;100.00;98010.19;5009015;28;20546;-76
2021/09/17 01:35:47;;;;;;;12.80;11.50;;;10.60;99.90;;;9.38;100.00;98005.81;5009158;28;20463;-75
2021/09/17 01:38:15;;;;;;;13.07;10.90;;;10.60;99.90;;;9.50;100.00;98004.97;5012146;28;20527;-75
2021/09/17 01:40:42;;;;;;;11.57;10.03;;;10.70;99.90;;;9.60;100.00;97993.75;5004385;28;20543;-75
2021/09/17 01:43:09;;;;;;;12.20;10.97;;;10.80;99.90;;;9.73;100.00;97994.78;5010443;28;20486;-77
2021/09/17 01:45:36;;;;;;;11.10;9.90;;;10.90;99.90;;;9.75;100.00;97990.00;5026417;28;20566;-76
2021/09/17 01:48:03;;;;;;;12.33;10.47;;;11.00;99.90;;;9.77;100.00;97988.75;5009362;28;20459;-75
2021/09/17 01:50:30;;;;;;;11.03;9.20;;;11.00;99.90;;;9.84;100.00;97994.13;5009342;28;20892;-75
2021/09/17 01:52:57;;;;;;;10.20;9.13;;;11.10;99.90;;;9.90;100.00;97990.59;5012726;28;20890;-75
2021/09/17 01:55:25;;;;;;;11.47;9.93;;;11.10;99.90;;;9.97;100.00;97981.66;5010471;28;20558;-77
2021/09/17 01:57:53;;;;;;;11.13;9.20;;;11.20;99.90;;;9.98;100.00;97988.72;5002880;28;20817;-76
2021/09/17 02:00:20;;;;;;;11.73;10.30;;;11.20;99.90;;;10.03;100.00;97983.50;5005058;28;20469;-75
2021/09/17 02:02:48;;;;;;;12.93;11.30;;;11.30;99.90;;;10.14;100.00;97982.00;5009478;28;20491;-76
2021/09/17 02:05:14;;;;;;;10.83;9.40;;;11.30;99.90;;;10.15;100.00;97979.09;5005184;28;20930;-76
2021/09/17 02:07:41;;;;;;;12.17;10.07;;;11.40;99.90;;;10.16;100.00;97983.44;5005892;28;20487;-76
2021/09/17 02:10:10;;;;;;;12.67;9.40;;;11.40;99.90;;;10.18;100.00;97975.97;5011122;28;20531;-76
2021/09/17 02:12:40;;;;;;;12.43;9.23;;;11.40;99.90;;;10.23;100.00;97983.44;5011830;28;20463;-76
2021/09/17 02:15:10;;;;;;;11.70;10.07;;;11.50;99.90;;;10.15;100.00;97962.91;5013424;28;20475;-76
2021/09/17 02:17:37;;;;;;;10.30;9.40;;;11.50;99.90;;;10.23;100.00;97982.59;5024131;28;20905;-76
2021/09/17 02:20:06;;;;;;;9.77;8.83;;;11.50;99.90;;;10.26;100.00;97987.56;5011862;28;20539;-76
2021/09/17 02:22:34;;;;;;;10.70;9.60;;;11.50;99.90;;;10.27;100.00;97981.13;5009408;28;20473;-76
2021/09/17 02:25:01;;;;;;;9.70;8.80;;;11.50;99.90;;;10.32;100.00;97984.84;5009568;28;20497;-76
2021/09/17 02:27:28;;;;;;;13.00;9.63;;;11.60;99.90;;;10.35;100.00;97978.16;5004861;28;20452;-76
2021/09/17 02:29:56;;;;;;;10.00;9.00;;;11.70;99.90;;;10.39;100.00;97979.41;5020624;28;20493;-76
2021/09/17 02:32:23;;;;;;;10.80;8.93;;;11.70;99.80;;;10.42;100.00;97965.50;5007155;28;20470;-76
2021/09/17 02:34:50;;;;;;;9.53;8.53;;;11.70;98.60;;;10.47;100.00;97971.09;5004663;28;20465;-75
2021/09/17 02:37:17;;;;;;;11.23;8.70;;;11.70;98.50;;;10.44;100.00;97957.16;5007753;28;20562;-76
2021/09/17 02:39:45;;;;;;;12.50;9.57;;;11.70;98.20;;;10.56;100.00;97962.75;5007253;28;20979;-75
2021/09/17 02:42:12;;;;;;;9.00;8.10;;;11.80;97.40;;;10.61;100.00;97958.34;5008313;28;20549;-76
2021/09/17 02:44:38;;;;;;;9.90;9.00;;;11.90;96.80;;;10.54;100.00;97954.00;5012726;28;20633;-76
2021/09/17 02:47:07;;;;;;;9.07;8.17;;;11.90;97.30;;;10.62;100.00;97956.47;5007852;28;20477;-77
2021/09/17 02:49:34;;;;;;;9.53;8.73;;;11.90;96.50;;;10.61;100.00;97952.09;5014308;28;20516;-77
2021/09/17 02:52:01;;;;;;;9.50;8.60;;;11.90;96.80;;;10.67;100.00;97958.50;5013062;28;21111;-77
2021/09/17 02:54:28;;;;;;;9.40;8.50;;;11.90;96.40;;;10.72;100.00;97956.81;5010159;28;20466;-77
2021/09/17 02:56:55;;;;;;;17.47;13.93;;;11.90;95.60;;;10.71;100.00;97944.34;5009703;28;20529;-76
2021/09/17 02:59:22;;;;;;;8.80;7.90;;;12.00;95.70;;;10.80;98.67;97952.19;5009460;28;20502;-76
2021/09/17 03:01:50;;;;;;;9.73;8.70;;;12.00;94.70;;;10.79;98.58;97953.22;5010689;28;20459;-76
2021/09/17 03:04:18;;;;;;;9.23;8.33;;;12.00;94.60;;;10.78;98.36;97955.13;4989893;28;20451;-76
2021/09/17 03:06:45;;;;;;;9.30;8.40;;;12.00;94.20;;;10.89;97.15;97951.69;5012650;28;20443;-77
2021/09/17 03:09:12;;;;;;;9.67;8.77;;;12.10;93.70;;;10.83;97.73;97946.34;5012956;28;20550;-76
2021/09/17 03:11:39;;;;;;;11.37;8.17;;;12.10;93.80;;;10.84;96.74;97948.00;5009765;28;20479;-76
2021/09/17 03:14:06;;;;;;;8.80;7.90;;;12.10;93.00;;;10.88;96.20;97949.22;5012569;28;20455;-77
2021/09/17 03:16:33;;;;;;;8.97;8.07;;;12.10;92.90;;;11.02;94.17;97945.38;5029157;28;20873;-76
2021/09/17 03:19:00;;;;;;;9.80;8.37;;;12.20;92.00;;;10.89;94.72;97948.19;5010555;28;21125;-79
2021/09/17 03:21:28;;;;;;;10.07;9.00;;;12.10;92.00;;;10.87;95.65;97947.56;5005054;28;20862;-77
2021/09/17 03:23:55;;;;;;;9.33;8.27;;;12.10;92.40;;;10.76;95.69;97941.81;5003053;28;20460;-76
2021/09/17 03:26:22;;;;;;;8.53;7.63;;;12.10;92.60;;;10.70;96.23;97937.28;5014328;28;20843;-76
2021/09/17 03:28:49;;;;;;;9.67;8.70;;;12.00;92.60;;;10.66;95.67;97946.88;5009165;28;21113;-76
2021/09/17 03:31:16;;;;;;;9.77;8.90;;;12.00;92.70;;;10.61;96.33;97946.69;5023063;28;20998;-76
2021/09/17 03:33:43;;;;;;;9.70;8.70;;;11.90;93.10;;;10.55;97.19;97950.28;5008551;28;21107;-76
2021/09/17 03:36:10;;;;;;;9.23;7.87;;;11.90;93.20;;;10.52;97.29;97956.09;5011355;28;20545;-77
2021/09/17 03:38:39;;;;;;;9.73;8.80;;;11.80;93.70;;;10.50;97.94;97953.63;5003254;28;20501;-77
2021/09/17 03:41:06;;;;;;;9.50;8.50;;;11.80;94.10;;;10.51;97.82;97949.88;5007864;28;20772;-76
2021/09/17 03:43:34;;;;;;;10.27;9.13;;;11.80;94.30;;;10.50;97.98;97945.53;5010898;28;20448;-77
2021/09/17 03:46:01;;;;;;;11.10;8.97;;;11.70;94.30;;;10.44;97.70;97940.97;5012728;28;20494;-76
2021/09/17 03:48:28;;;;;;;10.20;9.23;;;11.70;94.30;;;10.41;98.71;97944.94;5010249;28;20534;-76
2021/09/17 03:50:55;;;;;;;11.83;9.87;;;11.70;94.90;;;10.44;98.50;97946.38;5026979;28;20513;-77
2021/09/17 03:53:23;;;;;;;13.10;9.57;;;11.70;95.50;;;10.45;98.37;97940.75;5026965;28;20970;-80
2021/09/17 03:55:51;;;;;;;10.43;9.43;;;11.70;95.30;;;10.46;98.57;97938.88;5013053;28;20796;-77
2021/09/17 03:58:18;;;;;;;11.47;10.27;;;11.70;95.10;;;10.33;98.37;97942.47;5027608;28;20994;-76
2021/09/17 04:00:45;;;;;;;10.10;9.10;;;11.60;94.80;;;10.21;98.72;97945.00;5014393;28;20899;-77
2021/09/17 04:03:12;;;;;;;12.00;10.80;;;11.50;94.90;;;10.08;99.71;97937.78;5007276;28;20546;-76
2021/09/17 04:05:39;;;;;;;11.27;10.03;;;11.50;95.50;;;10.01;99.85;97953.19;5010544;28;20877;-76
2021/09/17 04:08:06;;;;;;;11.37;9.77;;;11.40;95.80;;;9.91;99.26;97949.06;5016904;28;20554;-79
2021/09/17 04:10:33;;;;;;;11.17;9.63;;;11.30;96.10;;;9.78;100.00;97957.19;5012484;28;20588;-76
2021/09/17 04:13:02;;;;;;;10.93;9.83;;;11.20;96.60;;;9.82;100.00;97950.34;5008972;28;20461;-76
2021/09/17 04:15:29;;;;;;;10.63;9.53;;;11.10;97.80;;;9.73;100.00;97954.31;5014438;28;20510;-75
2021/09/17 04:17:56;;;;;;;12.40;9.83;;;11.10;98.00;;;9.63;100.00;97954.75;5010741;28;20987;-79
2021/09/17 04:20:23;;;;;;;11.00;9.90;;;11.00;98.20;;;9.59;100.00;97962.44;5015597;28;20890;-77
2021/09/17 04:22:50;;;;;;;12.67;10.07;;;10.90;99.00;;;9.54;100.00;97947.91;5026218;28;20542;-76
2021/09/17 04:25:17;;;;;;;11.40;10.20;;;10.90;99.40;;;9.51;100.00;97951.88;5009741;28;20472;-76
2021/09/17 04:27:44;;;;;;;10.73;9.50;;;10.90;99.90;;;9.42;100.00;97958.50;5007486;28;20471;-79
2021/09/17 04:30:15;;;;;;;11.50;10.30;;;10.80;99.80;;;9.44;100.00;97961.84;5023133;28;20466;-74
2021/09/17 04:32:43;;;;;;;12.00;10.30;;;10.80;99.90;;;9.45;100.00;97958.94;5029867;28;20459;-74
2021/09/17 04:35:11;;;;;;;12.43;10.97;;;10.80;99.90;;;9.40;100.00;97968.69;5009381;28;20462;-76
2021/09/17 04:37:42;;;;;;;13.07;10.93;;;10.70;99.90;;;9.32;100.00;97970.53;5007920;28;20459;-75
2021/09/17 04:40:11;;;;;;;12.13;10.20;;;10.70;99.90;;;9.39;100.00;97969.72;5008752;28;20471;-75
2021/09/17 04:42:58;;;;;;;11.40;10.30;;;10.70;99.90;;;9.28;100.00;97963.91;5010973;28;20443;-75
2021/09/17 04:45:27;;;;;;;12.30;10.57;;;10.70;99.90;;;9.15;100.00;97974.69;5018249;28;20498;-76
2021/09/17 04:47:54;;;;;;;12.93;11.13;;;10.50;99.90;;;9.03;100.00;97967.25;5019104;28;20447;-76
2021/09/17 04:50:21;;;;;;;11.43;9.90;;;10.40;99.90;;;8.92;100.00;97959.78;5022941;28;20555;-76
2021/09/17 04:52:51;;;;;;;13.00;11.50;;;10.40;99.90;;;8.87;100.00;97960.41;5014086;28;20460;-76
2021/09/17 04:55:18;;;;;;;21.37;18.87;;;10.30;99.90;;;8.85;100.00;97961.63;5020590;28;20451;-76
2021/09/17 04:57:45;;;;;;;14.13;11.93;;;10.20;99.90;;;8.85;100.00;97958.94;5038625;28;20456;-76
2021/09/17 05:00:13;;;;;;;12.13;10.93;;;10.20;99.90;;;8.81;100.00;97958.53;5020771;28;20615;-76
2021/09/17 05:02:42;;;;;;;12.00;10.80;;;10.20;99.90;;;8.75;100.00;97954.78;5019462;28;20690;-76
2021/09/17 05:05:10;;;;;;;13.20;10.17;;;10.10;99.90;;;8.76;100.00;97967.22;5005005;28;20439;-77
2021/09/17 05:07:37;;;;;;;13.80;12.17;;;10.10;99.90;;;8.75;100.00;97960.19;5021583;28;20566;-77
2021/09/17 05:10:06;;;;;;;13.47;11.13;;;10.10;99.90;;;8.80;100.00;97967.66;5022301;28;20457;-77
2021/09/17 05:12:33;;;;;;;13.57;11.80;;;10.20;99.90;;;8.95;100.00;97970.16;5028389;28;20563;-77
2021/09/17 05:15:00;;;;;;;18.80;11.50;;;10.20;99.90;;;9.09;100.00;97972.84;5008609;28;20549;-78
2021/09/17 05:17:27;;;;;;;12.27;10.80;;;10.30;99.90;;;9.14;100.00;97965.81;5012421;28;20452;-78
2021/09/17 05:19:55;;;;;;;14.00;10.97;;;10.40;99.90;;;9.20;100.00;97967.66;5029551;28;20474;-78
2021/09/17 05:22:22;;;;;;;12.33;11.03;;;10.50;99.90;;;9.25;100.00;97968.88;5010023;28;20523;-78
2021/09/17 05:24:49;;;;;;;13.10;11.70;;;10.50;99.90;;;9.28;100.00;97974.69;5011644;28;20496;-77
2021/09/17 05:27:18;;;;;;;12.77;11.53;;;10.60;99.90;;;9.32;100.00;97981.34;5006765;28;20629;-77
2021/09/17 05:29:46;;;;;;;12.80;10.93;;;10.60;99.90;;;9.32;100.00;97973.25;5033477;28;20499;-79
2021/09/17 05:32:13;;;;;;;12.20;10.67;;;10.60;99.90;;;9.36;100.00;97976.34;4994471;28;20456;-79
2021/09/17 05:34:41;;;;;;;11.60;10.40;;;10.70;99.90;;;9.39;100.00;97975.13;5011878;28;20471;-84
2021/09/17 05:37:10;;;;;;;13.63;11.53;;;10.70;99.90;;;9.53;100.00;97973.22;5030205;28;20482;-78
2021/09/17 05:39:37;;;;;;;13.10;11.77;;;10.80;99.90;;;9.72;100.00;97977.78;5007110;28;20559;-77
2021/09/17 05:42:05;;;;;;;12.17;10.97;;;10.90;99.90;;;9.96;100.00;97977.31;5013642;28;20463;-78
2021/09/17 05:44:32;;;;;;;12.83;11.53;;;11.10;99.90;;;10.18;100.00;97973.25;5006146;28;20546;-79
2021/09/17 05:46:59;;;;;;;12.93;11.30;;;11.30;99.90;;;10.44;100.00;97976.91;5010552;28;20467;-79
2021/09/17 05:49:26;;;;;;;12.93;11.50;;;11.50;99.90;;;10.69;100.00;97978.88;5019248;28;20451;-79
2021/09/17 05:51:53;;;;;;;12.60;11.00;;;11.70;99.90;;;10.94;99.11;97974.56;5011245;28;20450;-78
2021/09/17 05:54:22;;;;;;;12.50;11.20;;;12.00;97.90;;;11.08;98.31;97980.69;5024123;28;20479;-77
2021/09/17 05:56:49;;;;;;;13.00;10.30;;;12.20;96.70;;;11.20;96.09;97985.16;5004340;28;21017;-78
2021/09/17 05:59:16;;;;;;;11.87;10.67;;;12.30;93.90;;;11.30;94.38;97979.28;5010964;28;20533;-78
2021/09/17 06:01:43;;;;;;;10.37;9.30;;;12.40;92.40;;;11.39;93.26;97984.38;5007373;28;20452;-77
2021/09/17 06:04:10;;;;;;;11.47;10.37;;;12.50;91.80;;;11.40;93.82;97989.59;5008741;28;20908;-77
2021/09/17 06:06:37;;;;;;;12.40;9.50;;;12.60;91.80;;;11.31;93.35;97997.16;5010027;28;20530;-76
2021/09/17 06:09:04;;;;;;;11.70;10.60;;;12.60;90.90;;;11.33;92.91;97995.06;5009230;28;20521;-77
2021/09/17 06:11:32;;;;;;;12.27;9.57;;;12.60;90.60;;;11.34;92.97;97996.69;5006819;28;20517;-77
2021/09/17 06:13:59;;;;;;;13.07;10.60;;;12.50;90.80;;;11.58;92.26;98001.50;5004966;28;20463;-75
2021/09/17 06:16:26;;;;;;;12.10;10.93;;;12.70;90.60;;;11.66;91.15;97997.69;5005363;28;20502;-75
2021/09/17 06:19:01;;;;;;;11.47;10.20;;;12.80;90.20;;;11.67;91.30;97999.31;5022851;28;20452;-77
2021/09/17 06:21:28;;;;;;;14.83;11.50;;;12.80;90.00;;;11.56;92.00;98004.41;5012416;28;20450;-78
2021/09/17 06:23:56;;;;;;;15.77;11.60;;;12.80;90.10;;;11.53;91.63;97995.94;5018145;28;20538;-78
2021/09/17 06:26:23;;;;;;;16.13;12.73;;;12.80;90.00;;;11.59;91.41;97998.53;5009686;28;20486;-79
2021/09/17 06:28:51;;;;;;;14.20;12.00;;;12.70;89.80;;;11.43;91.53;97993.69;5010702;28;20467;-78
2021/09/17 06:31:18;;;;;;;13.37;11.93;;;12.70;89.10;;;11.45;90.79;97986.22;5032746;28;20455;-78
2021/09/17 06:33:45;;;;;;;14.43;11.70;;;12.70;89.00;;;11.46;91.41;97998.69;5011281;28;20469;-79
2021/09/17 06:36:12;;;;;;;14.63;11.30;;;12.70;89.30;;;11.69;90.87;97984.53;5001769;28;20963;-78
2021/09/17 06:38:39;;;;;;;11.73;10.50;;;12.80;90.00;;;11.77;89.74;97994.25;5028440;28;20514;-79
2021/09/17 06:41:06;;;;;;;11.57;10.47;;;12.90;88.30;;;11.94;88.67;97994.47;5011967;28;20494;-76
2021/09/17 06:43:34;;;;;;;11.70;10.50;;;13.00;87.30;;;12.02;87.73;97993.38;5027420;28;20978;-78
2021/09/17 06:46:02;;;;;;;11.53;10.33;;;13.10;86.30;;;12.06;87.76;97983.75;5023696;28;20467;-77
2021/09/17 06:48:29;;;;;;;13.30;10.90;;;13.20;86.40;;;12.07;87.54;97988.13;5005429;28;20537;-76
2021/09/17 06:50:57;;;;;;;13.17;11.50;;;13.20;85.90;;;12.18;87.56;97990.06;5011333;28;20463;-78
2021/09/17 06:53:24;;;;;;;12.13;10.70;;;13.30;86.00;;;12.58;86.98;97998.75;5006703;28;20877;-78
2021/09/17 06:55:50;;;;;;;13.73;10.77;;;13.50;86.40;;;12.94;85.91;97985.31;5012836;28;20610;-79
2021/09/17 06:58:19;;;;;;;13.47;11.13;;;13.80;86.20;;;13.30;83.82;97995.19;5013085;28;20464;-84
2021/09/17 07:00:46;;;;;;;15.77;11.30;;;14.10;84.60;;;13.62;82.40;97993.25;5014127;28;20471;-82
2021/09/17 07:03:15;;;;;;;13.37;11.70;;;14.40;83.80;;;14.01;80.53;97990.84;5032356;28;20550;-81
2021/09/17 07:05:42;;;;;;;12.00;10.57;;;14.70;82.10;;;14.25;79.32;97988.09;4999209;28;20558;-83
2021/09/17 07:08:11;;;;;;;11.77;10.73;;;15.00;81.00;;;14.34;78.44;97978.50;5018656;28;21086;-82
2021/09/17 07:10:40;;;;;;;12.73;11.43;;;15.10;79.70;;;14.38;77.68;97962.50;5020142;28;20978;-83
2021/09/17 07:13:08;;;;;;;12.47;11.30;;;15.30;78.90;;;14.62;77.17;97982.28;5021743;28;20448;-82
2021/09/17 07:15:35;;;;;;;15.40;12.97;;;15.50;78.20;;;15.15;76.13;97991.16;5019294;28;20561;-83
2021/09/17 07:18:03;;;;;;;14.63;13.10;;;15.80;77.60;;;15.60;74.29;97985.06;5017766;28;20802;-83
2021/09/17 07:20:40;;;;;;;13.97;12.60;;;16.20;76.60;;;15.96;73.67;97982.88;5006201;28;20522;-84
2021/09/17 07:23:07;;;;;;;12.90;11.40;;;16.60;76.10;;;16.30;71.87;97988.22;5012403;28;20455;-81
2021/09/17 07:25:35;;;;;;;14.57;13.07;;;17.00;74.50;;;16.56;71.07;97988.53;5021565;28;20510;-80
2021/09/17 07:28:03;;;;;;;15.67;13.03;;;17.30;73.50;;;16.74;69.66;97998.28;5015318;28;20479;-81
2021/09/17 07:30:31;;;;;;;15.37;13.87;;;17.50;72.50;;;16.68;70.14;97994.66;5017392;28;20525;-80
2021/09/17 07:33:00;;;;;;;15.70;14.20;;;17.50;71.90;;;16.61;70.18;97993.22;5018133;28;20494;-83
2021/09/17 07:35:28;;;;;;;17.13;15.53;;;17.60;71.40;;;16.29;70.97;98005.66;5024127;28;20451;-83
2021/09/17 07:37:58;;;;;;;17.10;15.43;;;17.40;70.60;;;15.57;74.06;97995.38;5030693;28;20549;-83
2021/09/17 07:40:25;;;;;;;19.90;18.10;;;17.00;71.50;;;15.08;76.54;97997.81;5018951;28;20986;-84
2021/09/17 07:42:53;;;;;;;20.33;17.80;;;16.60;72.50;;;15.16;77.12;98002.88;5000673;28;20472;-83
2021/09/17 07:45:21;;;;;;;20.13;18.13;;;16.40;73.60;;;15.50;75.82;98002.88;5019385;28;20463;-83
2021/09/17 07:47:48;;;;;;;20.43;18.57;;;16.30;74.60;;;15.79;75.36;98005.50;5020062;28;20458;-83
2021/09/17 07:50:17;;;;;;;19.83;17.60;;;16.50;74.90;;;15.39;76.63;98007.34;5036065;28;20491;-84
2021/09/17 07:52:45;;;;;;;20.30;18.07;;;16.50;74.60;;;15.66;76.58;98005.84;5015097;28;20458;-86
2021/09/17 07:55:14;;;;;;;21.40;19.30;;;16.60;74.90;;;15.80;74.93;98003.59;5022435;28;20906;-81
2021/09/17 07:57:41;;;;;;;20.70;18.60;;;16.80;73.90;;;15.49;76.84;98009.41;5029800;28;20458;-80
2021/09/17 08:00:12;;;;;;;21.63;19.53;;;16.70;74.10;;;15.88;74.56;98002.34;5021755;28;20475;-82
2021/09/17 08:02:39;;;;;;;19.87;17.90;;;16.90;73.90;;;16.24;73.56;98000.97;5023036;28;20451;-82
2021/09/17 08:05:07;;;;;;;21.13;19.13;;;17.10;73.60;;;15.84;74.27;97999.31;5024694;28;20463;-82
2021/09/17 08:07:35;;;;;;;21.43;19.40;;;17.10;73.00;;;15.86;75.03;98016.22;5024373;28;20440;-83
2021/09/17 08:10:02;;;;;;;21.50;19.27;;;17.00;73.20;;;15.92;74.08;98003.53;5034698;28;20481;-82
2021/09/17 08:12:30;;;;;;;21.77;19.57;;;17.00;72.90;;;16.66;72.56;98007.75;5028135;28;20458;-82
2021/09/17 08:14:57;;;;;;;22.23;18.80;;;17.30;73.30;;;17.20;70.65;98000.66;5042862;28;20494;-81
2021/09/17 08:17:24;;;;;;;20.20;18.10;;;17.70;72.70;;;17.35;69.12;98004.59;5026922;28;20746;-82
2021/09/17 08:19:51;;;;;;;19.80;18.00;;;18.10;71.60;;;16.94;70.09;98005.84;5023239;28;20467;-81
2021/09/17 08:22:18;;;;;;;21.00;18.90;;;18.00;70.70;;;16.63;71.90;98013.72;5028361;28;20460;-82
2021/09/17 08:24:45;;;;;;;19.57;17.67;;;17.80;71.30;;;16.58;71.27;98013.63;5016685;28;20546;-81
2021/09/17 08:27:13;;;;;;;21.40;19.30;;;17.50;71.40;;;16.55;71.88;98006.81;5027338;28;20458;-81
2021/09/17 08:29:41;;;;;;;28.27;19.80;;;17.50;71.20;;;16.70;71.64;98008.88;5027274;28;20471;-83
2021/09/17 08:32:08;;;;;;;18.63;16.73;;;17.70;71.20;;;16.80;71.48;98013.59;5027164;28;20592;-81
2021/09/17 08:34:36;;;;;;;17.87;15.97;;;17.80;71.30;;;16.99;70.75;98007.84;5041855;28;20526;-82
2021/09/17 08:37:07;;;;;;;18.27;16.47;;;17.90;71.40;;;16.85;70.18;98010.97;5021971;28;20456;-82
2021/09/17 08:39:36;;;;;;;18.73;17.03;;;17.80;70.60;;;16.79;71.01;98000.25;5021441;28;20466;-80
2021/09/17 08:42:06;;;;;;;19.93;17.93;;;17.50;71.10;;;16.89;70.32;98008.50;5023196;28;20434;-86
2021/09/17 08:44:33;;;;;;;17.33;15.43;;;17.80;70.50;;;16.99;70.38;98010.59;5028977;28;20507;-83
2021/09/17 08:47:03;;;;;;;18.20;16.40;;;17.90;70.50;;;17.35;68.94;98002.72;5034720;28;20447;-82
2021/09/17 08:49:31;;;;;;;18.03;16.30;;;18.20;70.50;;;17.72;67.50;98008.44;5046941;28;20469;-80
2021/09/17 08:51:59;;;;;;;18.27;16.60;;;18.50;69.80;;;17.83;67.24;98004.69;5031178;28;20459;-82
2021/09/17 08:54:27;;;;;;;18.47;16.83;;;18.70;68.70;;;17.33;67.82;98009.50;5020926;28;20482;-80
2021/09/17 08:56:58;;;;;;;17.27;15.67;;;18.80;67.50;;;17.45;67.45;98007.44;5024224;28;20478;-82
2021/09/17 08:59:25;;;;;;;18.17;16.57;;;18.70;67.20;;;17.30;68.13;98004.56;5021971;28;20958;-82
2021/09/17 09:01:52;;;;;;;19.73;16.60;;;18.50;67.80;;;17.36;67.59;98008.97;5037871;28;20452;-81
2021/09/17 09:04:41;;;;;;;18.10;16.40;;;18.30;67.90;;;17.95;65.59;98004.47;5036002;28;20462;-81
2021/09/17 09:07:08;;;;;;;16.90;15.23;;;18.60;67.70;;;18.39;64.59;98012.41;5023627;28;20559;-82
2021/09/17 09:09:35;;;;;;;19.10;17.40;;;19.00;67.30;;;18.61;63.55;98005.94;5029644;28;20482;-82
2021/09/17 09:12:12;;;;;;;17.30;15.80;;;19.30;66.70;;;18.51;63.84;98000.41;5025024;28;20459;-82
2021/09/17 09:14:40;;;;;;;17.90;16.30;;;19.30;66.20;;;18.26;64.52;97999.22;5012151;28;20475;-83
2021/09/17 09:17:08;;;;;;;19.40;17.47;;;19.20;66.20;;;18.27;64.21;98001.69;5044190;28;20457;-82
2021/09/17 09:19:39;;;;;;;18.57;16.80;;;19.30;65.90;;;17.51;66.22;97998.19;5042210;28;20462;-81
2021/09/17 09:22:13;;;;;;;16.17;14.67;;;19.20;65.50;;;18.06;65.47;98003.50;5018021;28;20519;-82
2021/09/17 09:24:45;;;;;;;16.57;15.17;;;19.10;66.20;;;18.23;64.55;98002.47;5024022;28;20528;-81
2021/09/17 09:27:15;;;;;;;16.73;15.20;;;19.20;65.80;;;18.90;62.41;98008.22;5019864;28;20459;-82
2021/09/17 09:29:47;;;;;;;14.87;13.57;;;19.50;65.60;;;19.39;61.01;97997.88;5022254;28;20809;-81
2021/09/17 09:32:29;;;;;;;15.57;14.17;;;20.00;65.30;;;18.47;63.48;97999.31;5001607;28;20448;-82
2021/09/17 09:34:59;;;;;;;15.70;14.17;;;19.70;64.30;;;18.54;63.30;97999.88;5022386;28;20554;-82
2021/09/17 09:37:32;;;;;;;15.80;13.90;;;19.40;64.60;;;18.93;62.03;97996.72;5036840;28;20455;-81
2021/09/17 09:40:01;;;;;;;15.70;13.20;;;19.60;64.80;;;18.80;61.40;97987.13;5018405;28;20471;-83
2021/09/17 09:42:35;;;;;;;12.53;11.53;;;19.70;63.50;;;18.78;59.41;97991.22;5020923;28;20531;-81
2021/09/17 09:45:17;;;;;;;10.43;9.43;;;19.60;61.80;;;18.51;59.66;97989.47;5008125;28;20478;-81
2021/09/17 09:47:47;;;;;;;3.47;3.07;;;19.70;61.00;;;18.81;54.81;97988.75;5017163;28;20459;-83
2021/09/17 09:50:23;;;;;;;6.20;5.60;;;19.80;59.10;;;19.37;55.11;97978.97;5015732;28;20477;-82
2021/09/17 09:52:51;;;;;;;5.70;5.10;;;20.00;59.40;;;19.60;54.42;97975.94;5033291;28;20461;-81
2021/09/17 09:55:18;;;;;;;5.67;4.70;;;20.40;59.00;;;19.36;53.45;97979.25;5039580;28;20459;-82
2021/09/17 09:57:47;;;;;;;3.57;3.27;;;20.50;57.60;;;18.57;54.57;97982.13;5015934;28;20452;-82
2021/09/17 10:00:16;;;;;;;7.00;4.00;;;20.00;57.00;;;18.81;55.30;97977.81;5026083;28;20483;-81
2021/09/17 10:02:46;;;;;;;5.93;5.43;;;19.90;57.90;;;19.19;54.27;97972.16;5004682;28;20470;-83
2021/09/17 10:05:17;;;;;;;6.43;5.90;;;19.90;58.30;;;19.25;54.40;97967.47;5018262;28;20507;-83
2021/09/17 10:07:44;;;;;;;6.70;5.17;;;20.10;58.00;;;18.94;55.79;97964.66;5018274;28;20460;-83
2021/09/17 10:10:15;;;;;;;6.07;5.57;;;20.00;58.40;;;18.07;58.32;97966.88;5020892;28;20506;-82
2021/09/17 10:12:42;;;;;;;7.83;6.70;;;19.30;58.60;;;17.73;59.65;97980.88;5017099;28;20479;-79